sensor_id;sensor_type;location;lat;lon;timestamp;temperature;humidity
24148;DHT22;12309;51.450;-2.624;2022-11-12T00:00:18;13.10;99.90
24148;DHT22;12309;51.450;-2.624;2022-11-12T00:02:44;13.00;99.90
24148;DHT22;12309;51.450;-2.624;2022-11-12T00:05:09;12.90;99.90
24148;DHT22;12309;51.450;-2.624;2022-11-12T00:07:35;12.90;99.90
24148;DHT22;12309;51.450;-2.624;2022-11-12T00:10:01;12.90;99.90
24148;DHT22;12309;51.450;-2.624;2022-11-12T00:12:27;12.80;99.90
24148;DHT22;12309;51.450;-2.624;2022-11-12T00:14:53;12.80;99.90
24148;DHT22;12309;51.450;-2.624;2022-11-12T00:17:18;12.80;99.90
24148;DHT22;12309;51.450;-2.624;2022-11-12T00:19:44;12.80;99.90
24148;DHT22;12309;51.450;-2.624;2022-11-12T00:22:10;12.80;99.90
24148;DHT22;12309;51.450;-2.624;2022-11-12T00:24:35;12.70;99.90
24148;DHT22;12309;51.450;-2.624;2022-11-12T00:27:01;12.60;99.90
24148;DHT22;12309;51.450;-2.624;2022-11-12T00:29:27;12.60;99.90
24148;DHT22;12309;51.450;-2.624;2022-11-12T00:31:52;12.50;99.90
24148;DHT22;12309;51.450;-2.624;2022-11-12T00:34:18;12.50;99.90
24148;DHT22;12309;51.450;-2.624;2022-11-12T00:36:44;12.40;99.90
24148;DHT22;12309;51.450;-2.624;2022-11-12T00:39:09;12.40;99.90
24148;DHT22;12309;51.450;-2.624;2022-11-12T00:41:35;12.40;99.90
24148;DHT22;12309;51.450;-2.624;2022-11-12T00:44:00;12.40;99.90
24148;DHT22;12309;51.450;-2.624;2022-11-12T00:46:26;12.30;99.90
24148;DHT22;12309;51.450;-2.624;2022-11-12T00:48:52;12.30;99.90
24148;DHT22;12309;51.450;-2.624;2022-11-12T00:51:17;12.30;99.90
24148;DHT22;12309;51.450;-2.624;2022-11-12T00:53:46;12.30;99.90
24148;DHT22;12309;51.450;-2.624;2022-11-12T00:56:13;12.30;99.90
24148;DHT22;12309;51.450;-2.624;2022-11-12T00:58:39;12.40;99.90
24148;DHT22;12309;51.450;-2.624;2022-11-12T01:01:11;12.40;99.90
24148;DHT22;12309;51.450;-2.624;2022-11-12T01:03:38;12.40;99.90
24148;DHT22;12309;51.450;-2.624;2022-11-12T01:06:10;12.40;99.90
24148;DHT22;12309;51.450;-2.624;2022-11-12T01:08:36;12.30;99.90
24148;DHT22;12309;51.450;-2.624;2022-11-12T01:11:10;12.30;99.90
24148;DHT22;12309;51.450;-2.624;2022-11-12T01:13:38;12.40;99.90
24148;DHT22;12309;51.450;-2.624;2022-11-12T01:16:09;12.40;99.90
24148;DHT22;12309;51.450;-2.624;2022-11-12T01:18:35;12.40;99.90
24148;DHT22;12309;51.450;-2.624;2022-11-12T01:21:03;12.40;99.90
24148;DHT22;12309;51.450;-2.624;2022-11-12T01:23:35;12.40;99.90
24148;DHT22;12309;51.450;-2.624;2022-11-12T01:26:21;12.40;99.90
24148;DHT22;12309;51.450;-2.624;2022-11-12T01:28:47;12.40;99.90
24148;DHT22;12309;51.450;-2.624;2022-11-12T01:33:41;12.50;99.90
24148;DHT22;12309;51.450;-2.624;2022-11-12T01:36:07;12.60;99.90
24148;DHT22;12309;51.450;-2.624;2022-11-12T01:38:37;12.50;99.90
24148;DHT22;12309;51.450;-2.624;2022-11-12T01:41:04;12.60;99.90
24148;DHT22;12309;51.450;-2.624;2022-11-12T01:43:30;12.80;99.90
24148;DHT22;12309;51.450;-2.624;2022-11-12T01:45:56;12.70;99.90
24148;DHT22;12309;51.450;-2.624;2022-11-12T01:48:33;12.70;99.90
24148;DHT22;12309;51.450;-2.624;2022-11-12T01:51:00;12.70;99.90
24148;DHT22;12309;51.450;-2.624;2022-11-12T01:53:30;12.70;99.90
24148;DHT22;12309;51.450;-2.624;2022-11-12T01:55:57;12.60;99.90
24148;DHT22;12309;51.450;-2.624;2022-11-12T01:58:26;12.60;99.90
24148;DHT22;12309;51.450;-2.624;2022-11-12T02:00:54;12.60;99.90
24148;DHT22;12309;51.450;-2.624;2022-11-12T02:03:23;12.60;99.90
24148;DHT22;12309;51.450;-2.624;2022-11-12T02:05:52;12.60;99.90
24148;DHT22;12309;51.450;-2.624;2022-11-12T02:08:21;12.60;99.90
24148;DHT22;12309;51.450;-2.624;2022-11-12T02:10:48;12.60;99.90
24148;DHT22;12309;51.450;-2.624;2022-11-12T02:13:14;12.60;99.90
24148;DHT22;12309;51.450;-2.624;2022-11-12T02:15:59;12.60;99.90
24148;DHT22;12309;51.450;-2.624;2022-11-12T02:18:24;12.60;99.90
24148;DHT22;12309;51.450;-2.624;2022-11-12T02:20:55;12.60;99.90
24148;DHT22;12309;51.450;-2.624;2022-11-12T02:23:21;12.60;99.90
24148;DHT22;12309;51.450;-2.624;2022-11-12T02:25:47;12.60;99.90
24148;DHT22;12309;51.450;-2.624;2022-11-12T02:28:13;12.60;99.90
24148;DHT22;12309;51.450;-2.624;2022-11-12T02:30:42;12.50;99.90
24148;DHT22;12309;51.450;-2.624;2022-11-12T02:33:09;12.50;99.90
24148;DHT22;12309;51.450;-2.624;2022-11-12T02:35:34;12.50;99.90
24148;DHT22;12309;51.450;-2.624;2022-11-12T02:38:00;12.40;99.90
24148;DHT22;12309;51.450;-2.624;2022-11-12T02:40:26;12.40;99.90
24148;DHT22;12309;51.450;-2.624;2022-11-12T02:42:52;12.40;99.90
24148;DHT22;12309;51.450;-2.624;2022-11-12T02:45:18;12.40;99.90
24148;DHT22;12309;51.450;-2.624;2022-11-12T02:47:44;12.50;99.90
24148;DHT22;12309;51.450;-2.624;2022-11-12T02:50:10;12.50;99.90
24148;DHT22;12309;51.450;-2.624;2022-11-12T02:52:36;12.50;99.90
24148;DHT22;12309;51.450;-2.624;2022-11-12T02:55:02;12.50;99.90
24148;DHT22;12309;51.450;-2.624;2022-11-12T02:57:28;12.50;99.90
24148;DHT22;12309;51.450;-2.624;2022-11-12T02:59:54;12.50;99.90
24148;DHT22;12309;51.450;-2.624;2022-11-12T03:02:20;12.70;99.90
24148;DHT22;12309;51.450;-2.624;2022-11-12T03:04:46;12.60;99.90
24148;DHT22;12309;51.450;-2.624;2022-11-12T03:07:11;12.80;99.90
24148;DHT22;12309;51.450;-2.624;2022-11-12T03:09:37;12.70;99.90
24148;DHT22;12309;51.450;-2.624;2022-11-12T03:12:02;12.60;99.90
24148;DHT22;12309;51.450;-2.624;2022-11-12T03:14:28;12.60;99.90
24148;DHT22;12309;51.450;-2.624;2022-11-12T03:16:54;12.80;99.90
24148;DHT22;12309;51.450;-2.624;2022-11-12T03:19:19;12.60;99.90
24148;DHT22;12309;51.450;-2.624;2022-11-12T03:21:45;12.70;99.90
24148;DHT22;12309;51.450;-2.624;2022-11-12T03:24:11;12.50;99.90
24148;DHT22;12309;51.450;-2.624;2022-11-12T03:26:37;12.50;99.90
24148;DHT22;12309;51.450;-2.624;2022-11-12T03:29:02;12.50;99.90
24148;DHT22;12309;51.450;-2.624;2022-11-12T03:31:28;12.40;99.90
24148;DHT22;12309;51.450;-2.624;2022-11-12T03:33:54;12.30;99.90
24148;DHT22;12309;51.450;-2.624;2022-11-12T03:36:19;12.40;99.90
24148;DHT22;12309;51.450;-2.624;2022-11-12T03:38:45;11.90;99.90
24148;DHT22;12309;51.450;-2.624;2022-11-12T03:41:11;12.00;99.90
24148;DHT22;12309;51.450;-2.624;2022-11-12T03:43:36;11.90;99.90
24148;DHT22;12309;51.450;-2.624;2022-11-12T03:46:02;11.90;99.90
24148;DHT22;12309;51.450;-2.624;2022-11-12T03:48:28;11.70;99.90
24148;DHT22;12309;51.450;-2.624;2022-11-12T03:50:57;11.80;99.90
24148;DHT22;12309;51.450;-2.624;2022-11-12T03:53:23;11.80;99.90
24148;DHT22;12309;51.450;-2.624;2022-11-12T03:55:49;11.50;99.90
24148;DHT22;12309;51.450;-2.624;2022-11-12T03:58:14;11.70;99.90
24148;DHT22;12309;51.450;-2.624;2022-11-12T04:00:40;11.50;99.90
24148;DHT22;12309;51.450;-2.624;2022-11-12T04:03:06;11.50;99.90
24148;DHT22;12309;51.450;-2.624;2022-11-12T04:05:32;11.70;99.90
24148;DHT22;12309;51.450;-2.624;2022-11-12T04:08:18;11.50;99.90
24148;DHT22;12309;51.450;-2.624;2022-11-12T04:11:07;11.40;99.90
24148;DHT22;12309;51.450;-2.624;2022-11-12T04:13:33;11.50;99.90
24148;DHT22;12309;51.450;-2.624;2022-11-12T04:16:06;11.30;99.90
24148;DHT22;12309;51.450;-2.624;2022-11-12T04:18:52;11.40;99.90
24148;DHT22;12309;51.450;-2.624;2022-11-12T04:21:51;11.40;99.90
24148;DHT22;12309;51.450;-2.624;2022-11-12T04:24:40;11.70;99.90
24148;DHT22;12309;51.450;-2.624;2022-11-12T04:27:32;11.60;99.90
24148;DHT22;12309;51.450;-2.624;2022-11-12T04:29:58;11.50;99.90
24148;DHT22;12309;51.450;-2.624;2022-11-12T04:32:47;11.50;99.90
24148;DHT22;12309;51.450;-2.624;2022-11-12T04:35:13;11.60;99.90
24148;DHT22;12309;51.450;-2.624;2022-11-12T04:37:39;11.80;99.90
24148;DHT22;12309;51.450;-2.624;2022-11-12T04:43:02;11.60;99.90
24148;DHT22;12309;51.450;-2.624;2022-11-12T04:45:48;11.60;99.90
24148;DHT22;12309;51.450;-2.624;2022-11-12T04:48:15;11.50;99.90
24148;DHT22;12309;51.450;-2.624;2022-11-12T04:50:43;11.30;99.90
24148;DHT22;12309;51.450;-2.624;2022-11-12T04:53:09;11.20;99.90
24148;DHT22;12309;51.450;-2.624;2022-11-12T04:55:35;11.40;99.90
24148;DHT22;12309;51.450;-2.624;2022-11-12T04:58:00;11.20;99.90
24148;DHT22;12309;51.450;-2.624;2022-11-12T05:00:27;11.60;99.90
24148;DHT22;12309;51.450;-2.624;2022-11-12T05:02:52;11.50;99.90
24148;DHT22;12309;51.450;-2.624;2022-11-12T05:05:18;11.30;99.90
24148;DHT22;12309;51.450;-2.624;2022-11-12T05:07:44;11.30;99.90
24148;DHT22;12309;51.450;-2.624;2022-11-12T05:10:10;11.40;99.90
24148;DHT22;12309;51.450;-2.624;2022-11-12T05:12:36;11.30;99.90
24148;DHT22;12309;51.450;-2.624;2022-11-12T05:15:02;11.30;99.90
24148;DHT22;12309;51.450;-2.624;2022-11-12T05:17:28;11.20;99.90
24148;DHT22;12309;51.450;-2.624;2022-11-12T05:19:53;11.30;99.90
24148;DHT22;12309;51.450;-2.624;2022-11-12T05:22:19;11.30;99.90
24148;DHT22;12309;51.450;-2.624;2022-11-12T05:24:45;11.30;99.90
24148;DHT22;12309;51.450;-2.624;2022-11-12T05:27:16;11.30;99.90
24148;DHT22;12309;51.450;-2.624;2022-11-12T05:29:42;11.30;99.90
24148;DHT22;12309;51.450;-2.624;2022-11-12T05:32:11;11.50;99.90
24148;DHT22;12309;51.450;-2.624;2022-11-12T05:34:37;11.40;99.90
24148;DHT22;12309;51.450;-2.624;2022-11-12T05:37:04;11.40;99.90
24148;DHT22;12309;51.450;-2.624;2022-11-12T05:39:30;11.40;99.90
24148;DHT22;12309;51.450;-2.624;2022-11-12T05:41:56;11.40;99.90
24148;DHT22;12309;51.450;-2.624;2022-11-12T05:44:22;11.40;99.90
24148;DHT22;12309;51.450;-2.624;2022-11-12T05:46:48;11.50;99.90
24148;DHT22;12309;51.450;-2.624;2022-11-12T05:51:41;11.60;99.90
24148;DHT22;12309;51.450;-2.624;2022-11-12T05:54:07;11.70;99.90
24148;DHT22;12309;51.450;-2.624;2022-11-12T05:56:33;11.80;99.90
24148;DHT22;12309;51.450;-2.624;2022-11-12T05:59:03;11.80;99.90
24148;DHT22;12309;51.450;-2.624;2022-11-12T06:01:29;11.80;99.90
24148;DHT22;12309;51.450;-2.624;2022-11-12T06:03:55;11.80;99.90
24148;DHT22;12309;51.450;-2.624;2022-11-12T06:06:21;11.80;99.90
24148;DHT22;12309;51.450;-2.624;2022-11-12T06:08:47;11.90;99.90
24148;DHT22;12309;51.450;-2.624;2022-11-12T06:11:13;11.90;99.90
24148;DHT22;12309;51.450;-2.624;2022-11-12T06:13:38;11.90;99.90
24148;DHT22;12309;51.450;-2.624;2022-11-12T06:16:04;11.80;99.90
24148;DHT22;12309;51.450;-2.624;2022-11-12T06:18:30;11.90;99.90
24148;DHT22;12309;51.450;-2.624;2022-11-12T06:21:08;12.00;99.90
24148;DHT22;12309;51.450;-2.624;2022-11-12T06:23:56;11.90;99.90
24148;DHT22;12309;51.450;-2.624;2022-11-12T06:26:23;11.70;99.90
24148;DHT22;12309;51.450;-2.624;2022-11-12T06:28:50;12.20;99.90
24148;DHT22;12309;51.450;-2.624;2022-11-12T06:31:16;11.80;99.90
24148;DHT22;12309;51.450;-2.624;2022-11-12T06:33:43;12.10;99.90
24148;DHT22;12309;51.450;-2.624;2022-11-12T06:36:10;12.10;99.90
24148;DHT22;12309;51.450;-2.624;2022-11-12T06:38:37;11.90;99.90
24148;DHT22;12309;51.450;-2.624;2022-11-12T06:41:05;11.90;99.90
24148;DHT22;12309;51.450;-2.624;2022-11-12T06:43:32;11.90;99.90
24148;DHT22;12309;51.450;-2.624;2022-11-12T06:46:07;11.80;99.90
24148;DHT22;12309;51.450;-2.624;2022-11-12T06:48:34;12.00;99.90
24148;DHT22;12309;51.450;-2.624;2022-11-12T06:51:05;12.00;99.90
24148;DHT22;12309;51.450;-2.624;2022-11-12T06:56:03;11.70;99.90
24148;DHT22;12309;51.450;-2.624;2022-11-12T06:58:29;12.00;99.90
24148;DHT22;12309;51.450;-2.624;2022-11-12T07:00:55;11.90;99.90
24148;DHT22;12309;51.450;-2.624;2022-11-12T07:03:20;11.80;99.90
24148;DHT22;12309;51.450;-2.624;2022-11-12T07:05:46;11.90;99.90
24148;DHT22;12309;51.450;-2.624;2022-11-12T07:08:12;11.90;99.90
24148;DHT22;12309;51.450;-2.624;2022-11-12T07:10:37;12.10;99.90
24148;DHT22;12309;51.450;-2.624;2022-11-12T07:13:03;12.00;99.90
24148;DHT22;12309;51.450;-2.624;2022-11-12T07:15:29;12.00;99.90
24148;DHT22;12309;51.450;-2.624;2022-11-12T07:17:54;11.90;99.90
24148;DHT22;12309;51.450;-2.624;2022-11-12T07:20:20;10.00;99.90
24148;DHT22;12309;51.450;-2.624;2022-11-12T07:22:46;12.00;99.90
24148;DHT22;12309;51.450;-2.624;2022-11-12T07:25:11;12.00;99.90
24148;DHT22;12309;51.450;-2.624;2022-11-12T07:27:37;11.90;99.90
24148;DHT22;12309;51.450;-2.624;2022-11-12T07:30:03;12.00;99.90
24148;DHT22;12309;51.450;-2.624;2022-11-12T07:32:29;12.10;99.90
24148;DHT22;12309;51.450;-2.624;2022-11-12T07:34:54;12.10;99.90
24148;DHT22;12309;51.450;-2.624;2022-11-12T07:37:20;12.10;99.90
24148;DHT22;12309;51.450;-2.624;2022-11-12T07:39:46;12.10;99.90
24148;DHT22;12309;51.450;-2.624;2022-11-12T07:42:11;12.20;99.90
24148;DHT22;12309;51.450;-2.624;2022-11-12T07:44:37;12.10;99.90
24148;DHT22;12309;51.450;-2.624;2022-11-12T07:47:03;12.20;99.90
24148;DHT22;12309;51.450;-2.624;2022-11-12T07:49:28;12.10;99.90
24148;DHT22;12309;51.450;-2.624;2022-11-12T07:51:54;12.20;99.90
24148;DHT22;12309;51.450;-2.624;2022-11-12T07:54:19;12.20;99.90
24148;DHT22;12309;51.450;-2.624;2022-11-12T07:56:45;12.20;99.90
24148;DHT22;12309;51.450;-2.624;2022-11-12T07:59:11;12.20;99.90
24148;DHT22;12309;51.450;-2.624;2022-11-12T08:01:37;12.30;99.90
24148;DHT22;12309;51.450;-2.624;2022-11-12T08:04:05;12.30;99.90
24148;DHT22;12309;51.450;-2.624;2022-11-12T08:06:32;12.50;99.90
24148;DHT22;12309;51.450;-2.624;2022-11-12T08:09:00;12.20;99.90
24148;DHT22;12309;51.450;-2.624;2022-11-12T08:11:25;12.30;99.90
24148;DHT22;12309;51.450;-2.624;2022-11-12T08:13:51;12.40;99.90
24148;DHT22;12309;51.450;-2.624;2022-11-12T08:16:18;12.40;99.90
24148;DHT22;12309;51.450;-2.624;2022-11-12T08:18:44;12.40;99.90
24148;DHT22;12309;51.450;-2.624;2022-11-12T08:21:12;12.70;99.90
24148;DHT22;12309;51.450;-2.624;2022-11-12T08:23:39;12.40;99.90
24148;DHT22;12309;51.450;-2.624;2022-11-12T08:26:07;12.40;99.90
24148;DHT22;12309;51.450;-2.624;2022-11-12T08:28:34;12.50;99.90
24148;DHT22;12309;51.450;-2.624;2022-11-12T08:31:05;12.50;99.90
24148;DHT22;12309;51.450;-2.624;2022-11-12T08:33:32;12.60;99.90
24148;DHT22;12309;51.450;-2.624;2022-11-12T08:35:58;12.60;99.90
24148;DHT22;12309;51.450;-2.624;2022-11-12T08:38:23;12.80;99.90
24148;DHT22;12309;51.450;-2.624;2022-11-12T08:40:49;12.60;99.90
24148;DHT22;12309;51.450;-2.624;2022-11-12T08:43:14;12.60;99.90
24148;DHT22;12309;51.450;-2.624;2022-11-12T08:45:40;12.90;99.90
24148;DHT22;12309;51.450;-2.624;2022-11-12T08:48:12;12.70;99.90
24148;DHT22;12309;51.450;-2.624;2022-11-12T08:50:41;12.70;99.90
24148;DHT22;12309;51.450;-2.624;2022-11-12T08:53:09;12.80;99.90
24148;DHT22;12309;51.450;-2.624;2022-11-12T08:58:01;12.90;99.90
24148;DHT22;12309;51.450;-2.624;2022-11-12T09:00:29;12.80;99.90
24148;DHT22;12309;51.450;-2.624;2022-11-12T09:02:55;12.60;99.90
24148;DHT22;12309;51.450;-2.624;2022-11-12T09:05:20;12.80;99.90
24148;DHT22;12309;51.450;-2.624;2022-11-12T09:07:46;13.00;99.90
24148;DHT22;12309;51.450;-2.624;2022-11-12T09:10:12;12.80;99.90
24148;DHT22;12309;51.450;-2.624;2022-11-12T09:12:37;12.80;99.90
24148;DHT22;12309;51.450;-2.624;2022-11-12T09:15:05;12.90;99.90
24148;DHT22;12309;51.450;-2.624;2022-11-12T09:17:31;13.40;99.90
24148;DHT22;12309;51.450;-2.624;2022-11-12T09:19:57;13.30;99.90
24148;DHT22;12309;51.450;-2.624;2022-11-12T09:22:23;13.40;99.90
24148;DHT22;12309;51.450;-2.624;2022-11-12T09:27:14;13.60;99.90
24148;DHT22;12309;51.450;-2.624;2022-11-12T09:29:40;13.60;99.90
24148;DHT22;12309;51.450;-2.624;2022-11-12T09:32:06;13.30;99.90
24148;DHT22;12309;51.450;-2.624;2022-11-12T09:34:31;13.50;99.90
24148;DHT22;12309;51.450;-2.624;2022-11-12T09:36:57;13.50;99.90
24148;DHT22;12309;51.450;-2.624;2022-11-12T09:39:23;13.60;99.90
24148;DHT22;12309;51.450;-2.624;2022-11-12T09:41:48;13.40;99.90
24148;DHT22;12309;51.450;-2.624;2022-11-12T09:44:19;13.70;99.90
24148;DHT22;12309;51.450;-2.624;2022-11-12T09:46:56;13.70;99.90
24148;DHT22;12309;51.450;-2.624;2022-11-12T09:52:05;13.80;99.90
24148;DHT22;12309;51.450;-2.624;2022-11-12T09:54:36;13.80;99.90
24148;DHT22;12309;51.450;-2.624;2022-11-12T09:57:01;13.80;99.90
24148;DHT22;12309;51.450;-2.624;2022-11-12T09:59:29;13.80;99.90
24148;DHT22;12309;51.450;-2.624;2022-11-12T10:07:51;14.20;99.90
24148;DHT22;12309;51.450;-2.624;2022-11-12T10:24:33;15.70;99.90
24148;DHT22;12309;51.450;-2.624;2022-11-12T10:26:59;16.10;99.90
24148;DHT22;12309;51.450;-2.624;2022-11-12T10:29:41;16.50;99.90
24148;DHT22;12309;51.450;-2.624;2022-11-12T10:32:12;17.00;99.90
24148;DHT22;12309;51.450;-2.624;2022-11-12T10:34:39;16.80;99.90
24148;DHT22;12309;51.450;-2.624;2022-11-12T10:39:42;16.90;99.90
24148;DHT22;12309;51.450;-2.624;2022-11-12T10:42:12;17.30;99.90
24148;DHT22;12309;51.450;-2.624;2022-11-12T10:44:39;17.20;99.90
24148;DHT22;12309;51.450;-2.624;2022-11-12T10:47:34;17.40;99.90
24148;DHT22;12309;51.450;-2.624;2022-11-12T10:52:33;17.20;99.90
24148;DHT22;12309;51.450;-2.624;2022-11-12T10:55:19;17.30;99.90
24148;DHT22;12309;51.450;-2.624;2022-11-12T10:57:45;17.50;99.90
24148;DHT22;12309;51.450;-2.624;2022-11-12T11:07:50;17.50;99.90
24148;DHT22;12309;51.450;-2.624;2022-11-12T11:10:27;18.30;99.90
24148;DHT22;12309;51.450;-2.624;2022-11-12T11:16:04;19.90;99.90
24148;DHT22;12309;51.450;-2.624;2022-11-12T11:18:35;22.70;99.90
24148;DHT22;12309;51.450;-2.624;2022-11-12T11:26:53;23.60;99.90
24148;DHT22;12309;51.450;-2.624;2022-11-12T11:35:23;23.20;99.90
24148;DHT22;12309;51.450;-2.624;2022-11-12T11:38:01;23.20;99.90
24148;DHT22;12309;51.450;-2.624;2022-11-12T11:40:33;24.60;99.90
24148;DHT22;12309;51.450;-2.624;2022-11-12T11:43:07;25.30;99.90
24148;DHT22;12309;51.450;-2.624;2022-11-12T11:52:11;25.70;99.90
24148;DHT22;12309;51.450;-2.624;2022-11-12T11:57:27;27.40;99.90
24148;DHT22;12309;51.450;-2.624;2022-11-12T12:00:16;27.20;99.90
24148;DHT22;12309;51.450;-2.624;2022-11-12T12:03:39;27.40;99.90
24148;DHT22;12309;51.450;-2.624;2022-11-12T12:06:23;26.60;99.90
24148;DHT22;12309;51.450;-2.624;2022-11-12T12:09:01;24.80;99.90
24148;DHT22;12309;51.450;-2.624;2022-11-12T12:11:41;27.10;99.90
24148;DHT22;12309;51.450;-2.624;2022-11-12T12:14:33;25.80;99.90
24148;DHT22;12309;51.450;-2.624;2022-11-12T12:19:50;25.60;99.90
24148;DHT22;12309;51.450;-2.624;2022-11-12T12:22:37;24.20;99.90
24148;DHT22;12309;51.450;-2.624;2022-11-12T12:25:13;25.40;99.90
24148;DHT22;12309;51.450;-2.624;2022-11-12T12:30:44;26.70;99.90
24148;DHT22;12309;51.450;-2.624;2022-11-12T12:33:27;23.90;99.90
24148;DHT22;12309;51.450;-2.624;2022-11-12T12:35:58;25.10;99.90
24148;DHT22;12309;51.450;-2.624;2022-11-12T12:41:45;23.60;99.90
24148;DHT22;12309;51.450;-2.624;2022-11-12T12:44:11;25.20;99.90
24148;DHT22;12309;51.450;-2.624;2022-11-12T12:46:55;25.20;99.90
24148;DHT22;12309;51.450;-2.624;2022-11-12T12:49:29;25.10;99.90
24148;DHT22;12309;51.450;-2.624;2022-11-12T12:51:57;24.70;99.90
24148;DHT22;12309;51.450;-2.624;2022-11-12T12:57:26;25.10;99.90
24148;DHT22;12309;51.450;-2.624;2022-11-12T13:00:26;26.20;99.90
24148;DHT22;12309;51.450;-2.624;2022-11-12T13:02:55;25.60;99.90
24148;DHT22;12309;51.450;-2.624;2022-11-12T13:05:33;25.80;99.90
24148;DHT22;12309;51.450;-2.624;2022-11-12T13:08:03;26.40;99.90
24148;DHT22;12309;51.450;-2.624;2022-11-12T13:15:50;26.30;99.90
24148;DHT22;12309;51.450;-2.624;2022-11-12T13:21:17;26.50;99.90
24148;DHT22;12309;51.450;-2.624;2022-11-12T13:23:48;25.00;99.90
24148;DHT22;12309;51.450;-2.624;2022-11-12T13:26:46;25.30;99.90
24148;DHT22;12309;51.450;-2.624;2022-11-12T13:40:41;26.40;99.90
24148;DHT22;12309;51.450;-2.624;2022-11-12T13:46:02;27.00;99.90
24148;DHT22;12309;51.450;-2.624;2022-11-12T13:48:42;25.70;99.90
24148;DHT22;12309;51.450;-2.624;2022-11-12T13:53:52;25.90;99.90
24148;DHT22;12309;51.450;-2.624;2022-11-12T13:58:53;24.50;99.90
24148;DHT22;12309;51.450;-2.624;2022-11-12T14:01:20;23.00;99.90
24148;DHT22;12309;51.450;-2.624;2022-11-12T14:03:49;22.70;99.90
24148;DHT22;12309;51.450;-2.624;2022-11-12T14:06:33;21.70;99.90
24148;DHT22;12309;51.450;-2.624;2022-11-12T14:17:36;21.60;99.90
24148;DHT22;12309;51.450;-2.624;2022-11-12T14:22:40;22.80;99.90
24148;DHT22;12309;51.450;-2.624;2022-11-12T14:27:49;23.50;99.90
24148;DHT22;12309;51.450;-2.624;2022-11-12T14:30:25;23.70;99.90
24148;DHT22;12309;51.450;-2.624;2022-11-12T14:32:58;24.80;99.90
24148;DHT22;12309;51.450;-2.624;2022-11-12T14:35:34;23.10;99.90
24148;DHT22;12309;51.450;-2.624;2022-11-12T14:38:24;23.10;99.90
24148;DHT22;12309;51.450;-2.624;2022-11-12T14:41:41;21.50;99.90
24148;DHT22;12309;51.450;-2.624;2022-11-12T14:43:43;22.50;99.90
24148;DHT22;12309;51.450;-2.624;2022-11-12T14:46:25;22.90;99.90
24148;DHT22;12309;51.450;-2.624;2022-11-12T14:48:59;22.50;99.90
24148;DHT22;12309;51.450;-2.624;2022-11-12T14:51:27;22.10;99.90
24148;DHT22;12309;51.450;-2.624;2022-11-12T14:54:01;21.80;99.90
24148;DHT22;12309;51.450;-2.624;2022-11-12T14:56:31;22.40;99.90
24148;DHT22;12309;51.450;-2.624;2022-11-12T14:58:58;23.20;99.90
24148;DHT22;12309;51.450;-2.624;2022-11-12T15:01:31;22.90;99.90
24148;DHT22;12309;51.450;-2.624;2022-11-12T15:06:35;21.60;99.90
24148;DHT22;12309;51.450;-2.624;2022-11-12T15:09:02;21.20;99.90
24148;DHT22;12309;51.450;-2.624;2022-11-12T15:13:59;20.90;99.90
24148;DHT22;12309;51.450;-2.624;2022-11-12T15:19:14;21.60;99.90
24148;DHT22;12309;51.450;-2.624;2022-11-12T15:21:48;22.30;99.90
24148;DHT22;12309;51.450;-2.624;2022-11-12T15:24:17;22.50;99.90
24148;DHT22;12309;51.450;-2.624;2022-11-12T15:26:48;21.80;99.90
24148;DHT22;12309;51.450;-2.624;2022-11-12T15:29:32;21.80;99.90
24148;DHT22;12309;51.450;-2.624;2022-11-12T15:39:40;20.60;99.90
24148;DHT22;12309;51.450;-2.624;2022-11-12T15:45:19;19.80;99.90
24148;DHT22;12309;51.450;-2.624;2022-11-12T15:47:45;19.50;99.90
24148;DHT22;12309;51.450;-2.624;2022-11-12T15:50:16;19.40;99.90
24148;DHT22;12309;51.450;-2.624;2022-11-12T15:52:43;19.00;99.90
24148;DHT22;12309;51.450;-2.624;2022-11-12T15:55:11;18.70;99.90
24148;DHT22;12309;51.450;-2.624;2022-11-12T15:57:46;18.70;99.90
24148;DHT22;12309;51.450;-2.624;2022-11-12T16:00:21;18.50;99.90
24148;DHT22;12309;51.450;-2.624;2022-11-12T16:02:58;18.20;99.90
24148;DHT22;12309;51.450;-2.624;2022-11-12T16:05:25;20.00;99.90
24148;DHT22;12309;51.450;-2.624;2022-11-12T16:07:50;17.60;99.90
24148;DHT22;12309;51.450;-2.624;2022-11-12T16:10:17;17.50;99.90
24148;DHT22;12309;51.450;-2.624;2022-11-12T16:12:44;17.40;99.90
24148;DHT22;12309;51.450;-2.624;2022-11-12T16:15:16;17.20;99.90
24148;DHT22;12309;51.450;-2.624;2022-11-12T16:17:43;17.20;99.90
24148;DHT22;12309;51.450;-2.624;2022-11-12T16:20:18;17.00;99.90
24148;DHT22;12309;51.450;-2.624;2022-11-12T16:22:46;17.10;99.90
24148;DHT22;12309;51.450;-2.624;2022-11-12T16:25:12;17.00;99.90
24148;DHT22;12309;51.450;-2.624;2022-11-12T16:27:38;17.00;99.90
24148;DHT22;12309;51.450;-2.624;2022-11-12T16:30:12;16.90;99.90
24148;DHT22;12309;51.450;-2.624;2022-11-12T16:32:37;16.90;99.90
24148;DHT22;12309;51.450;-2.624;2022-11-12T16:35:03;16.90;99.90
24148;DHT22;12309;51.450;-2.624;2022-11-12T16:37:29;16.90;99.90
24148;DHT22;12309;51.450;-2.624;2022-11-12T16:39:55;16.80;99.90
24148;DHT22;12309;51.450;-2.624;2022-11-12T16:42:21;16.70;99.90
24148;DHT22;12309;51.450;-2.624;2022-11-12T16:44:47;16.70;99.90
24148;DHT22;12309;51.450;-2.624;2022-11-12T16:47:12;18.40;99.90
24148;DHT22;12309;51.450;-2.624;2022-11-12T16:49:38;16.60;99.90
24148;DHT22;12309;51.450;-2.624;2022-11-12T16:52:05;16.50;99.90
24148;DHT22;12309;51.450;-2.624;2022-11-12T16:54:31;16.50;99.90
24148;DHT22;12309;51.450;-2.624;2022-11-12T16:59:22;16.40;99.90
24148;DHT22;12309;51.450;-2.624;2022-11-12T17:01:48;16.30;99.90
24148;DHT22;12309;51.450;-2.624;2022-11-12T17:04:13;16.20;99.90
24148;DHT22;12309;51.450;-2.624;2022-11-12T17:06:39;16.20;99.90
24148;DHT22;12309;51.450;-2.624;2022-11-12T17:09:07;16.20;99.90
24148;DHT22;12309;51.450;-2.624;2022-11-12T17:11:34;16.10;99.90
24148;DHT22;12309;51.450;-2.624;2022-11-12T17:14:00;16.10;99.90
24148;DHT22;12309;51.450;-2.624;2022-11-12T17:16:26;16.10;99.90
24148;DHT22;12309;51.450;-2.624;2022-11-12T17:18:56;16.00;99.90
24148;DHT22;12309;51.450;-2.624;2022-11-12T17:21:22;16.00;99.90
24148;DHT22;12309;51.450;-2.624;2022-11-12T17:23:48;16.00;99.90
24148;DHT22;12309;51.450;-2.624;2022-11-12T17:26:20;16.00;99.90
24148;DHT22;12309;51.450;-2.624;2022-11-12T17:28:46;16.00;99.90
24148;DHT22;12309;51.450;-2.624;2022-11-12T17:31:20;15.90;99.90
24148;DHT22;12309;51.450;-2.624;2022-11-12T17:33:48;15.90;99.90
24148;DHT22;12309;51.450;-2.624;2022-11-12T17:36:20;15.90;99.90
24148;DHT22;12309;51.450;-2.624;2022-11-12T17:38:46;15.80;99.90
24148;DHT22;12309;51.450;-2.624;2022-11-12T17:41:12;15.90;99.90
24148;DHT22;12309;51.450;-2.624;2022-11-12T17:43:39;15.80;99.90
24148;DHT22;12309;51.450;-2.624;2022-11-12T17:46:06;16.00;99.90
24148;DHT22;12309;51.450;-2.624;2022-11-12T17:48:33;15.80;99.90
24148;DHT22;12309;51.450;-2.624;2022-11-12T17:53:31;15.70;99.90
24148;DHT22;12309;51.450;-2.624;2022-11-12T17:55:57;15.70;99.90
24148;DHT22;12309;51.450;-2.624;2022-11-12T17:58:23;15.70;99.90